sensor_id;sensor_type;location;lat;lon;timestamp;temperature;humidity
83770;DHT22;73763;48.936;9.300;2024-03-23T00:54:03;8.90;98.90
83770;DHT22;73763;48.936;9.300;2024-03-23T00:56:29;9.10;98.30
83770;DHT22;73763;48.936;9.300;2024-03-23T00:58:56;9.30;97.80
83770;DHT22;73763;48.936;9.300;2024-03-23T01:01:21;9.50;97.10
83770;DHT22;73763;48.936;9.300;2024-03-23T01:03:47;9.50;96.90
83770;DHT22;73763;48.936;9.300;2024-03-23T01:06:12;9.50;96.80
83770;DHT22;73763;48.936;9.300;2024-03-23T01:08:38;9.60;96.60
83770;DHT22;73763;48.936;9.300;2024-03-23T01:11:03;9.60;96.40
83770;DHT22;73763;48.936;9.300;2024-03-23T01:13:29;9.80;96.30
83770;DHT22;73763;48.936;9.300;2024-03-23T01:15:56;9.80;96.00
83770;DHT22;73763;48.936;9.300;2024-03-23T01:18:23;9.90;96.00
83770;DHT22;73763;48.936;9.300;2024-03-23T01:20:49;10.00;96.10
83770;DHT22;73763;48.936;9.300;2024-03-23T01:23:15;10.10;95.80
83770;DHT22;73763;48.936;9.300;2024-03-23T01:25:41;10.10;95.70
83770;DHT22;73763;48.936;9.300;2024-03-23T01:28:06;10.10;95.50
83770;DHT22;73763;48.936;9.300;2024-03-23T01:30:33;10.20;95.50
83770;DHT22;73763;48.936;9.300;2024-03-23T01:32:58;10.20;95.40
83770;DHT22;73763;48.936;9.300;2024-03-23T01:35:24;10.20;95.60
83770;DHT22;73763;48.936;9.300;2024-03-23T01:37:50;10.20;95.60
83770;DHT22;73763;48.936;9.300;2024-03-23T01:40:16;10.10;95.60
83770;DHT22;73763;48.936;9.300;2024-03-23T01:42:42;10.20;95.60
83770;DHT22;73763;48.936;9.300;2024-03-23T01:45:08;10.20;95.50
83770;DHT22;73763;48.936;9.300;2024-03-23T01:47:35;10.20;95.40
83770;DHT22;73763;48.936;9.300;2024-03-23T01:50:01;10.20;95.40
83770;DHT22;73763;48.936;9.300;2024-03-23T01:52:27;10.20;95.40
83770;DHT22;73763;48.936;9.300;2024-03-23T01:54:53;10.20;95.30
83770;DHT22;73763;48.936;9.300;2024-03-23T01:57:19;10.20;95.40
83770;DHT22;73763;48.936;9.300;2024-03-23T01:59:45;10.20;95.30
83770;DHT22;73763;48.936;9.300;2024-03-23T02:02:10;10.20;95.40
83770;DHT22;73763;48.936;9.300;2024-03-23T02:04:36;10.30;95.10
83770;DHT22;73763;48.936;9.300;2024-03-23T02:07:01;10.40;94.70
83770;DHT22;73763;48.936;9.300;2024-03-23T02:09:27;10.40;94.90
83770;DHT22;73763;48.936;9.300;2024-03-23T02:11:54;10.40;95.10
83770;DHT22;73763;48.936;9.300;2024-03-23T02:14:20;10.30;95.00
83770;DHT22;73763;48.936;9.300;2024-03-23T02:16:45;10.30;95.00
83770;DHT22;73763;48.936;9.300;2024-03-23T02:19:11;10.30;95.10
83770;DHT22;73763;48.936;9.300;2024-03-23T02:21:36;10.20;95.20
83770;DHT22;73763;48.936;9.300;2024-03-23T02:24:02;10.10;95.40
83770;DHT22;73763;48.936;9.300;2024-03-23T02:26:28;10.10;95.60
83770;DHT22;73763;48.936;9.300;2024-03-23T02:28:53;10.10;95.80
83770;DHT22;73763;48.936;9.300;2024-03-23T02:31:19;10.10;95.90
83770;DHT22;73763;48.936;9.300;2024-03-23T02:33:44;10.10;96.20
83770;DHT22;73763;48.936;9.300;2024-03-23T02:36:10;10.00;96.20
83770;DHT22;73763;48.936;9.300;2024-03-23T02:38:35;10.00;96.30
83770;DHT22;73763;48.936;9.300;2024-03-23T02:41:04;10.00;96.70
83770;DHT22;73763;48.936;9.300;2024-03-23T02:43:29;10.00;96.80
83770;DHT22;73763;48.936;9.300;2024-03-23T02:45:55;10.00;96.80
83770;DHT22;73763;48.936;9.300;2024-03-23T02:48:20;10.10;96.90
83770;DHT22;73763;48.936;9.300;2024-03-23T02:50:46;10.10;96.90
83770;DHT22;73763;48.936;9.300;2024-03-23T02:53:11;10.10;96.90
83770;DHT22;73763;48.936;9.300;2024-03-23T02:55:37;10.10;97.10
83770;DHT22;73763;48.936;9.300;2024-03-23T02:58:03;10.00;97.20
83770;DHT22;73763;48.936;9.300;2024-03-23T03:00:28;10.00;97.40
83770;DHT22;73763;48.936;9.300;2024-03-23T03:02:54;10.10;97.50
83770;DHT22;73763;48.936;9.300;2024-03-23T03:05:20;10.10;97.40
83770;DHT22;73763;48.936;9.300;2024-03-23T03:07:45;10.10;97.50
83770;DHT22;73763;48.936;9.300;2024-03-23T03:10:11;10.00;97.70
83770;DHT22;73763;48.936;9.300;2024-03-23T03:12:37;9.90;97.90
83770;DHT22;73763;48.936;9.300;2024-03-23T03:15:04;9.70;97.90
83770;DHT22;73763;48.936;9.300;2024-03-23T03:17:29;9.60;98.30
83770;DHT22;73763;48.936;9.300;2024-03-23T03:19:55;9.40;98.60
83770;DHT22;73763;48.936;9.300;2024-03-23T03:22:20;9.30;98.80
83770;DHT22;73763;48.936;9.300;2024-03-23T03:24:46;9.20;99.00
83770;DHT22;73763;48.936;9.300;2024-03-23T03:27:11;9.10;99.30
83770;DHT22;73763;48.936;9.300;2024-03-23T03:29:37;8.90;99.60
83770;DHT22;73763;48.936;9.300;2024-03-23T03:32:03;8.90;99.90
83770;DHT22;73763;48.936;9.300;2024-03-23T03:34:28;8.80;99.90
83770;DHT22;73763;48.936;9.300;2024-03-23T03:36:54;8.80;99.90
83770;DHT22;73763;48.936;9.300;2024-03-23T03:39:19;8.80;99.90
83770;DHT22;73763;48.936;9.300;2024-03-23T03:41:45;8.70;99.90
83770;DHT22;73763;48.936;9.300;2024-03-23T03:44:10;8.60;99.90
83770;DHT22;73763;48.936;9.300;2024-03-23T03:46:36;8.60;99.90
83770;DHT22;73763;48.936;9.300;2024-03-23T03:49:01;8.70;99.90
83770;DHT22;73763;48.936;9.300;2024-03-23T03:51:27;8.80;99.90
83770;DHT22;73763;48.936;9.300;2024-03-23T03:53:52;9.00;99.90
83770;DHT22;73763;48.936;9.300;2024-03-23T03:56:18;9.20;99.90
83770;DHT22;73763;48.936;9.300;2024-03-23T03:58:43;9.30;99.70
83770;DHT22;73763;48.936;9.300;2024-03-23T04:01:09;9.30;99.60
83770;DHT22;73763;48.936;9.300;2024-03-23T04:03:34;9.40;99.50
83770;DHT22;73763;48.936;9.300;2024-03-23T04:06:00;9.20;99.50
83770;DHT22;73763;48.936;9.300;2024-03-23T04:08:25;9.30;99.60
83770;DHT22;73763;48.936;9.300;2024-03-23T04:10:51;9.20;99.70
83770;DHT22;73763;48.936;9.300;2024-03-23T04:13:16;9.00;99.90
83770;DHT22;73763;48.936;9.300;2024-03-23T04:15:42;9.10;99.90
83770;DHT22;73763;48.936;9.300;2024-03-23T04:18:08;9.20;99.90
83770;DHT22;73763;48.936;9.300;2024-03-23T04:20:34;9.30;99.90
83770;DHT22;73763;48.936;9.300;2024-03-23T04:23:00;9.40;99.80
83770;DHT22;73763;48.936;9.300;2024-03-23T04:25:25;9.50;99.60
83770;DHT22;73763;48.936;9.300;2024-03-23T04:27:51;9.60;99.60
83770;DHT22;73763;48.936;9.300;2024-03-23T04:30:17;9.70;99.80
83770;DHT22;73763;48.936;9.300;2024-03-23T04:32:42;9.70;99.90
83770;DHT22;73763;48.936;9.300;2024-03-23T04:35:08;9.90;99.90
83770;DHT22;73763;48.936;9.300;2024-03-23T04:37:34;10.10;99.90
83770;DHT22;73763;48.936;9.300;2024-03-23T04:40:03;10.10;99.90
83770;DHT22;73763;48.936;9.300;2024-03-23T04:42:29;9.80;99.90
83770;DHT22;73763;48.936;9.300;2024-03-23T04:44:55;9.50;99.90
83770;DHT22;73763;48.936;9.300;2024-03-23T04:47:21;9.10;99.90
83770;DHT22;73763;48.936;9.300;2024-03-23T04:49:47;8.90;99.90
83770;DHT22;73763;48.936;9.300;2024-03-23T04:52:12;8.80;99.90
83770;DHT22;73763;48.936;9.300;2024-03-23T04:54:38;8.60;99.90
83770;DHT22;73763;48.936;9.300;2024-03-23T04:57:03;8.60;99.90
83770;DHT22;73763;48.936;9.300;2024-03-23T04:59:29;8.60;99.90
83770;DHT22;73763;48.936;9.300;2024-03-23T05:01:54;8.50;99.90
83770;DHT22;73763;48.936;9.300;2024-03-23T05:04:20;8.50;99.90
83770;DHT22;73763;48.936;9.300;2024-03-23T05:06:45;8.60;99.90
83770;DHT22;73763;48.936;9.300;2024-03-23T05:09:11;8.70;99.90
83770;DHT22;73763;48.936;9.300;2024-03-23T05:11:37;8.70;99.90
83770;DHT22;73763;48.936;9.300;2024-03-23T05:14:02;8.80;99.90
83770;DHT22;73763;48.936;9.300;2024-03-23T05:16:28;8.90;99.90
83770;DHT22;73763;48.936;9.300;2024-03-23T05:18:55;9.00;99.90
83770;DHT22;73763;48.936;9.300;2024-03-23T05:21:20;9.10;99.90
83770;DHT22;73763;48.936;9.300;2024-03-23T05:23:46;9.20;99.90
83770;DHT22;73763;48.936;9.300;2024-03-23T05:26:11;9.20;99.90
83770;DHT22;73763;48.936;9.300;2024-03-23T05:28:37;9.10;99.90
83770;DHT22;73763;48.936;9.300;2024-03-23T05:31:02;9.20;99.90
83770;DHT22;73763;48.936;9.300;2024-03-23T05:33:28;9.30;99.90
83770;DHT22;73763;48.936;9.300;2024-03-23T05:36:01;9.30;99.90
83770;DHT22;73763;48.936;9.300;2024-03-23T05:38:27;9.30;99.90
83770;DHT22;73763;48.936;9.300;2024-03-23T05:40:59;9.30;99.90
83770;DHT22;73763;48.936;9.300;2024-03-23T05:43:26;9.30;99.90
83770;DHT22;73763;48.936;9.300;2024-03-23T05:46:00;9.30;99.90
83770;DHT22;73763;48.936;9.300;2024-03-23T05:48:26;9.30;99.90
83770;DHT22;73763;48.936;9.300;2024-03-23T05:50:52;9.20;99.90
83770;DHT22;73763;48.936;9.300;2024-03-23T05:53:19;9.30;99.90
83770;DHT22;73763;48.936;9.300;2024-03-23T05:55:45;9.20;99.90
83770;DHT22;73763;48.936;9.300;2024-03-23T05:58:10;9.20;99.90
83770;DHT22;73763;48.936;9.300;2024-03-23T06:00:36;9.20;99.90
83770;DHT22;73763;48.936;9.300;2024-03-23T06:03:02;9.10;99.90
83770;DHT22;73763;48.936;9.300;2024-03-23T06:05:27;9.00;99.90
83770;DHT22;73763;48.936;9.300;2024-03-23T06:07:53;9.00;99.90
83770;DHT22;73763;48.936;9.300;2024-03-23T06:10:19;8.90;99.90
83770;DHT22;73763;48.936;9.300;2024-03-23T06:12:46;9.00;99.90
83770;DHT22;73763;48.936;9.300;2024-03-23T06:15:11;8.80;99.90
83770;DHT22;73763;48.936;9.300;2024-03-23T06:17:37;8.80;99.90
83770;DHT22;73763;48.936;9.300;2024-03-23T06:20:02;8.80;99.90
83770;DHT22;73763;48.936;9.300;2024-03-23T06:22:28;8.80;99.90
83770;DHT22;73763;48.936;9.300;2024-03-23T06:24:54;8.80;99.90
83770;DHT22;73763;48.936;9.300;2024-03-23T06:27:19;8.70;99.90
83770;DHT22;73763;48.936;9.300;2024-03-23T06:29:45;8.60;99.90
83770;DHT22;73763;48.936;9.300;2024-03-23T06:32:10;8.70;99.90
83770;DHT22;73763;48.936;9.300;2024-03-23T06:34:36;8.70;99.90
83770;DHT22;73763;48.936;9.300;2024-03-23T06:37:01;8.70;99.90
83770;DHT22;73763;48.936;9.300;2024-03-23T06:39:27;8.70;99.90
83770;DHT22;73763;48.936;9.300;2024-03-23T06:41:53;8.70;99.90
83770;DHT22;73763;48.936;9.300;2024-03-23T06:44:19;8.70;99.90
83770;DHT22;73763;48.936;9.300;2024-03-23T06:46:45;8.60;99.90
83770;DHT22;73763;48.936;9.300;2024-03-23T06:49:11;8.60;99.90
83770;DHT22;73763;48.936;9.300;2024-03-23T06:51:37;8.60;99.90
83770;DHT22;73763;48.936;9.300;2024-03-23T06:54:03;8.50;99.90
83770;DHT22;73763;48.936;9.300;2024-03-23T06:56:29;8.40;99.90
83770;DHT22;73763;48.936;9.300;2024-03-23T06:58:57;8.50;99.90
83770;DHT22;73763;48.936;9.300;2024-03-23T07:01:22;8.40;99.90
83770;DHT22;73763;48.936;9.300;2024-03-23T07:03:48;8.40;99.90
83770;DHT22;73763;48.936;9.300;2024-03-23T07:06:14;8.40;99.90
83770;DHT22;73763;48.936;9.300;2024-03-23T07:08:39;8.50;99.90
83770;DHT22;73763;48.936;9.300;2024-03-23T07:11:05;8.50;99.90
83770;DHT22;73763;48.936;9.300;2024-03-23T07:13:31;8.60;99.90
83770;DHT22;73763;48.936;9.300;2024-03-23T07:15:56;8.60;99.90
83770;DHT22;73763;48.936;9.300;2024-03-23T07:18:22;8.50;99.90
83770;DHT22;73763;48.936;9.300;2024-03-23T07:20:58;8.60;99.90
83770;DHT22;73763;48.936;9.300;2024-03-23T07:23:24;8.60;99.90
83770;DHT22;73763;48.936;9.300;2024-03-23T07:26:01;8.50;99.90
83770;DHT22;73763;48.936;9.300;2024-03-23T07:28:27;8.50;99.90
83770;DHT22;73763;48.936;9.300;2024-03-23T07:31:03;8.70;99.90
83770;DHT22;73763;48.936;9.300;2024-03-23T07:33:29;8.70;99.90
83770;DHT22;73763;48.936;9.300;2024-03-23T07:35:55;8.70;99.90
83770;DHT22;73763;48.936;9.300;2024-03-23T07:38:20;8.60;99.90
83770;DHT22;73763;48.936;9.300;2024-03-23T07:40:46;8.50;99.90
83770;DHT22;73763;48.936;9.300;2024-03-23T07:43:12;8.40;99.90
83770;DHT22;73763;48.936;9.300;2024-03-23T07:45:37;8.30;99.90
83770;DHT22;73763;48.936;9.300;2024-03-23T07:48:03;8.40;99.90
83770;DHT22;73763;48.936;9.300;2024-03-23T07:50:30;8.50;99.90
83770;DHT22;73763;48.936;9.300;2024-03-23T07:52:55;8.50;99.90
83770;DHT22;73763;48.936;9.300;2024-03-23T07:55:21;8.50;99.90
83770;DHT22;73763;48.936;9.300;2024-03-23T07:57:46;8.50;99.90
83770;DHT22;73763;48.936;9.300;2024-03-23T08:00:12;8.50;99.90
83770;DHT22;73763;48.936;9.300;2024-03-23T08:02:38;8.50;99.90
83770;DHT22;73763;48.936;9.300;2024-03-23T08:05:04;8.40;99.90
83770;DHT22;73763;48.936;9.300;2024-03-23T08:07:29;8.30;99.90
83770;DHT22;73763;48.936;9.300;2024-03-23T08:09:55;8.10;99.90
83770;DHT22;73763;48.936;9.300;2024-03-23T08:12:20;8.10;99.90
83770;DHT22;73763;48.936;9.300;2024-03-23T08:14:46;8.00;99.90
83770;DHT22;73763;48.936;9.300;2024-03-23T08:17:11;8.00;99.90
83770;DHT22;73763;48.936;9.300;2024-03-23T08:19:37;8.00;99.90
83770;DHT22;73763;48.936;9.300;2024-03-23T08:22:02;7.80;99.90
83770;DHT22;73763;48.936;9.300;2024-03-23T08:24:28;7.60;99.90
83770;DHT22;73763;48.936;9.300;2024-03-23T08:26:54;7.30;99.90
83770;DHT22;73763;48.936;9.300;2024-03-23T08:29:21;7.40;99.90
83770;DHT22;73763;48.936;9.300;2024-03-23T08:31:46;7.50;99.90
83770;DHT22;73763;48.936;9.300;2024-03-23T08:34:12;7.70;99.90
83770;DHT22;73763;48.936;9.300;2024-03-23T08:36:39;7.80;99.90
83770;DHT22;73763;48.936;9.300;2024-03-23T08:39:04;8.10;99.90
83770;DHT22;73763;48.936;9.300;2024-03-23T08:41:30;8.50;99.90
83770;DHT22;73763;48.936;9.300;2024-03-23T08:43:55;9.40;99.90
83770;DHT22;73763;48.936;9.300;2024-03-23T08:46:21;10.10;99.90
83770;DHT22;73763;48.936;9.300;2024-03-23T08:48:47;9.80;98.10
83770;DHT22;73763;48.936;9.300;2024-03-23T08:51:14;9.40;98.60
83770;DHT22;73763;48.936;9.300;2024-03-23T08:53:40;9.00;99.90
83770;DHT22;73763;48.936;9.300;2024-03-23T08:56:08;8.70;99.90
83770;DHT22;73763;48.936;9.300;2024-03-23T08:58:35;8.90;99.90
83770;DHT22;73763;48.936;9.300;2024-03-23T09:01:08;9.80;99.90
83770;DHT22;73763;48.936;9.300;2024-03-23T09:03:34;10.60;97.60
83770;DHT22;73763;48.936;9.300;2024-03-23T09:06:00;10.60;95.00
83770;DHT22;73763;48.936;9.300;2024-03-23T09:08:26;10.60;96.90
83770;DHT22;73763;48.936;9.300;2024-03-23T09:10:52;11.40;96.60
83770;DHT22;73763;48.936;9.300;2024-03-23T09:13:18;13.00;93.80
83770;DHT22;73763;48.936;9.300;2024-03-23T09:15:49;13.10;90.80
83770;DHT22;73763;48.936;9.300;2024-03-23T09:18:14;12.30;90.30
83770;DHT22;73763;48.936;9.300;2024-03-23T09:20:40;11.40;91.90
83770;DHT22;73763;48.936;9.300;2024-03-23T09:23:05;10.40;92.90
83770;DHT22;73763;48.936;9.300;2024-03-23T09:25:31;9.80;95.00
83770;DHT22;73763;48.936;9.300;2024-03-23T09:27:56;9.50;96.30
83770;DHT22;73763;48.936;9.300;2024-03-23T09:30:22;9.30;97.20
83770;DHT22;73763;48.936;9.300;2024-03-23T09:32:48;8.70;96.10
83770;DHT22;73763;48.936;9.300;2024-03-23T09:35:13;8.00;99.20
83770;DHT22;73763;48.936;9.300;2024-03-23T09:37:39;7.70;99.90
83770;DHT22;73763;48.936;9.300;2024-03-23T09:40:05;7.50;99.90
83770;DHT22;73763;48.936;9.300;2024-03-23T09:42:31;7.50;99.90
83770;DHT22;73763;48.936;9.300;2024-03-23T09:44:57;7.50;99.90
83770;DHT22;73763;48.936;9.300;2024-03-23T09:47:26;7.70;99.90
83770;DHT22;73763;48.936;9.300;2024-03-23T09:49:51;7.80;99.90
83770;DHT22;73763;48.936;9.300;2024-03-23T09:52:17;7.80;99.90
83770;DHT22;73763;48.936;9.300;2024-03-23T09:54:43;8.00;99.90
83770;DHT22;73763;48.936;9.300;2024-03-23T09:57:08;8.10;99.90
83770;DHT22;73763;48.936;9.300;2024-03-23T09:59:34;8.30;99.90
83770;DHT22;73763;48.936;9.300;2024-03-23T10:02:01;8.50;99.90
83770;DHT22;73763;48.936;9.300;2024-03-23T10:04:42;8.60;99.90
83770;DHT22;73763;48.936;9.300;2024-03-23T10:09:36;9.00;99.90
83770;DHT22;73763;48.936;9.300;2024-03-23T10:12:10;9.60;98.40
83770;DHT22;73763;48.936;9.300;2024-03-23T10:14:36;10.90;98.70
83770;DHT22;73763;48.936;9.300;2024-03-23T10:17:16;11.80;95.70
83770;DHT22;73763;48.936;9.300;2024-03-23T10:19:41;12.50;93.40
83770;DHT22;73763;48.936;9.300;2024-03-23T10:22:08;12.30;91.60
83770;DHT22;73763;48.936;9.300;2024-03-23T10:24:33;11.80;90.10
83770;DHT22;73763;48.936;9.300;2024-03-23T10:26:59;11.00;91.20
83770;DHT22;73763;48.936;9.300;2024-03-23T10:29:24;10.20;92.40
83770;DHT22;73763;48.936;9.300;2024-03-23T10:31:50;9.70;94.00
83770;DHT22;73763;48.936;9.300;2024-03-23T10:34:16;9.40;93.40
83770;DHT22;73763;48.936;9.300;2024-03-23T10:36:41;9.00;94.10
83770;DHT22;73763;48.936;9.300;2024-03-23T10:39:07;8.80;95.00
83770;DHT22;73763;48.936;9.300;2024-03-23T10:41:33;8.80;94.70
83770;DHT22;73763;48.936;9.300;2024-03-23T10:43:59;8.90;94.90
83770;DHT22;73763;48.936;9.300;2024-03-23T10:46:27;8.90;93.10
83770;DHT22;73763;48.936;9.300;2024-03-23T10:48:52;8.90;93.50
83770;DHT22;73763;48.936;9.300;2024-03-23T10:51:18;8.90;91.20
83770;DHT22;73763;48.936;9.300;2024-03-23T10:53:45;8.70;91.20
83770;DHT22;73763;48.936;9.300;2024-03-23T10:56:12;8.60;91.50
83770;DHT22;73763;48.936;9.300;2024-03-23T10:58:44;8.40;91.40
83770;DHT22;73763;48.936;9.300;2024-03-23T11:01:12;8.20;92.90
83770;DHT22;73763;48.936;9.300;2024-03-23T11:03:39;7.90;93.40
83770;DHT22;73763;48.936;9.300;2024-03-23T11:06:05;7.50;95.80
83770;DHT22;73763;48.936;9.300;2024-03-23T11:08:40;6.80;98.20
83770;DHT22;73763;48.936;9.300;2024-03-23T11:11:21;6.50;99.60
83770;DHT22;73763;48.936;9.300;2024-03-23T11:13:51;6.30;99.90
83770;DHT22;73763;48.936;9.300;2024-03-23T11:16:24;6.20;99.90
83770;DHT22;73763;48.936;9.300;2024-03-23T11:18:51;6.20;99.90
83770;DHT22;73763;48.936;9.300;2024-03-23T11:21:54;6.30;99.90
83770;DHT22;73763;48.936;9.300;2024-03-23T11:24:20;6.50;99.90
83770;DHT22;73763;48.936;9.300;2024-03-23T11:26:47;6.80;99.90
83770;DHT22;73763;48.936;9.300;2024-03-23T11:29:14;7.00;99.90
83770;DHT22;73763;48.936;9.300;2024-03-23T11:31:53;7.80;99.90
83770;DHT22;73763;48.936;9.300;2024-03-23T11:34:20;8.80;98.80
83770;DHT22;73763;48.936;9.300;2024-03-23T11:36:46;9.00;98.00
83770;DHT22;73763;48.936;9.300;2024-03-23T11:39:19;9.00;98.10
83770;DHT22;73763;48.936;9.300;2024-03-23T11:41:56;9.40;98.20
83770;DHT22;73763;48.936;9.300;2024-03-23T11:44:23;9.60;96.90
83770;DHT22;73763;48.936;9.300;2024-03-23T11:46:50;9.90;95.70
83770;DHT22;73763;48.936;9.300;2024-03-23T11:49:27;9.70;94.40
83770;DHT22;73763;48.936;9.300;2024-03-23T11:51:53;9.50;95.30
83770;DHT22;73763;48.936;9.300;2024-03-23T11:54:23;9.20;94.90
83770;DHT22;73763;48.936;9.300;2024-03-23T11:57:06;8.60;95.70
83770;DHT22;73763;48.936;9.300;2024-03-23T11:59:40;8.30;97.60
83770;DHT22;73763;48.936;9.300;2024-03-23T12:02:12;8.30;97.10
83770;DHT22;73763;48.936;9.300;2024-03-23T12:04:38;8.30;96.80
83770;DHT22;73763;48.936;9.300;2024-03-23T12:07:17;8.40;95.80
83770;DHT22;73763;48.936;9.300;2024-03-23T12:09:43;8.40;96.20
83770;DHT22;73763;48.936;9.300;2024-03-23T12:12:15;8.60;97.00
83770;DHT22;73763;48.936;9.300;2024-03-23T12:14:45;8.70;96.40
83770;DHT22;73763;48.936;9.300;2024-03-23T12:17:25;8.50;95.80
83770;DHT22;73763;48.936;9.300;2024-03-23T12:19:50;8.30;96.60
83770;DHT22;73763;48.936;9.300;2024-03-23T12:22:20;8.40;97.00
83770;DHT22;73763;48.936;9.300;2024-03-23T12:24:47;8.30;96.50
83770;DHT22;73763;48.936;9.300;2024-03-23T12:27:13;8.60;95.30
83770;DHT22;73763;48.936;9.300;2024-03-23T12:29:40;9.50;95.00
83770;DHT22;73763;48.936;9.300;2024-03-23T12:32:06;10.30;92.20
83770;DHT22;73763;48.936;9.300;2024-03-23T12:34:32;12.00;86.10
83770;DHT22;73763;48.936;9.300;2024-03-23T12:36:57;13.00;74.20
83770;DHT22;73763;48.936;9.300;2024-03-23T12:39:23;12.60;74.30
83770;DHT22;73763;48.936;9.300;2024-03-23T12:41:50;11.60;73.80
83770;DHT22;73763;48.936;9.300;2024-03-23T12:44:16;11.20;79.60
83770;DHT22;73763;48.936;9.300;2024-03-23T12:46:42;11.00;73.40
83770;DHT22;73763;48.936;9.300;2024-03-23T12:49:07;11.60;72.50
83770;DHT22;73763;48.936;9.300;2024-03-23T12:51:33;12.10;71.60
83770;DHT22;73763;48.936;9.300;2024-03-23T12:54:00;12.10;69.80
83770;DHT22;73763;48.936;9.300;2024-03-23T12:56:26;13.30;68.20
83770;DHT22;73763;48.936;9.300;2024-03-23T12:58:51;13.70;62.70
83770;DHT22;73763;48.936;9.300;2024-03-23T13:01:17;13.70;61.50
83770;DHT22;73763;48.936;9.300;2024-03-23T13:03:43;12.80;63.70
83770;DHT22;73763;48.936;9.300;2024-03-23T13:06:11;11.40;65.20
83770;DHT22;73763;48.936;9.300;2024-03-23T13:08:36;10.80;70.70
83770;DHT22;73763;48.936;9.300;2024-03-23T13:11:02;10.70;72.40
83770;DHT22;73763;48.936;9.300;2024-03-23T13:13:27;10.70;74.90
83770;DHT22;73763;48.936;9.300;2024-03-23T13:15:53;11.30;74.20
83770;DHT22;73763;48.936;9.300;2024-03-23T13:18:18;12.40;69.20
83770;DHT22;73763;48.936;9.300;2024-03-23T13:20:44;13.20;66.10
83770;DHT22;73763;48.936;9.300;2024-03-23T13:23:10;14.30;62.60
83770;DHT22;73763;48.936;9.300;2024-03-23T13:25:35;15.10;55.90
83770;DHT22;73763;48.936;9.300;2024-03-23T13:28:01;14.90;57.80
83770;DHT22;73763;48.936;9.300;2024-03-23T13:30:26;15.00;58.50
83770;DHT22;73763;48.936;9.300;2024-03-23T13:32:52;14.70;55.10
83770;DHT22;73763;48.936;9.300;2024-03-23T13:35:17;14.50;53.70
83770;DHT22;73763;48.936;9.300;2024-03-23T13:37:43;14.80;52.00
83770;DHT22;73763;48.936;9.300;2024-03-23T13:40:09;14.80;51.30
83770;DHT22;73763;48.936;9.300;2024-03-23T13:42:34;14.90;52.00
83770;DHT22;73763;48.936;9.300;2024-03-23T13:45:00;14.90;51.60
83770;DHT22;73763;48.936;9.300;2024-03-23T13:47:25;14.80;53.30
83770;DHT22;73763;48.936;9.300;2024-03-23T13:49:51;14.20;55.50
83770;DHT22;73763;48.936;9.300;2024-03-23T13:52:16;14.20;54.80
83770;DHT22;73763;48.936;9.300;2024-03-23T13:54:42;14.10;56.50
83770;DHT22;73763;48.936;9.300;2024-03-23T13:57:07;13.40;55.70
83770;DHT22;73763;48.936;9.300;2024-03-23T13:59:33;12.40;56.20
83770;DHT22;73763;48.936;9.300;2024-03-23T14:01:58;10.90;67.20
83770;DHT22;73763;48.936;9.300;2024-03-23T14:04:24;9.50;80.40
83770;DHT22;73763;48.936;9.300;2024-03-23T14:06:49;8.60;94.10
83770;DHT22;73763;48.936;9.300;2024-03-23T14:09:15;7.90;96.50
83770;DHT22;73763;48.936;9.300;2024-03-23T14:11:41;7.40;97.40
83770;DHT22;73763;48.936;9.300;2024-03-23T14:14:07;7.20;98.00
83770;DHT22;73763;48.936;9.300;2024-03-23T14:16:32;7.00;96.90
83770;DHT22;73763;48.936;9.300;2024-03-23T14:18:58;6.90;98.50
83770;DHT22;73763;48.936;9.300;2024-03-23T14:21:24;6.70;99.10
83770;DHT22;73763;48.936;9.300;2024-03-23T14:23:49;6.40;99.10
83770;DHT22;73763;48.936;9.300;2024-03-23T14:26:17;6.50;98.90
83770;DHT22;73763;48.936;9.300;2024-03-23T14:28:42;6.70;98.80
83770;DHT22;73763;48.936;9.300;2024-03-23T14:31:08;6.80;98.40
83770;DHT22;73763;48.936;9.300;2024-03-23T14:33:33;6.80;99.10
83770;DHT22;73763;48.936;9.300;2024-03-23T14:36:00;6.70;99.00
83770;DHT22;73763;48.936;9.300;2024-03-23T14:38:25;6.70;99.10
83770;DHT22;73763;48.936;9.300;2024-03-23T14:40:51;6.70;99.40
83770;DHT22;73763;48.936;9.300;2024-03-23T14:43:17;6.90;99.90
83770;DHT22;73763;48.936;9.300;2024-03-23T14:46:44;9.20;96.50
83770;DHT22;73763;48.936;9.300;2024-03-23T14:49:14;11.40;93.80
83770;DHT22;73763;48.936;9.300;2024-03-23T14:51:40;12.70;82.60
83770;DHT22;73763;48.936;9.300;2024-03-23T14:54:05;13.90;80.10
83770;DHT22;73763;48.936;9.300;2024-03-23T14:56:32;14.30;71.60
83770;DHT22;73763;48.936;9.300;2024-03-23T14:58:57;14.50;70.10
83770;DHT22;73763;48.936;9.300;2024-03-23T15:01:23;13.20;68.40
83770;DHT22;73763;48.936;9.300;2024-03-23T15:03:48;12.00;76.50
83770;DHT22;73763;48.936;9.300;2024-03-23T15:06:14;11.00;81.50
83770;DHT22;73763;48.936;9.300;2024-03-23T15:08:39;10.00;83.80
83770;DHT22;73763;48.936;9.300;2024-03-23T15:11:05;9.30;90.80
83770;DHT22;73763;48.936;9.300;2024-03-23T15:13:33;8.80;90.70
83770;DHT22;73763;48.936;9.300;2024-03-23T15:15:59;9.00;91.10
83770;DHT22;73763;48.936;9.300;2024-03-23T15:18:25;10.10;80.20
83770;DHT22;73763;48.936;9.300;2024-03-23T15:20:57;10.80;75.90
83770;DHT22;73763;48.936;9.300;2024-03-23T15:23:23;12.00;71.90
83770;DHT22;73763;48.936;9.300;2024-03-23T15:26:01;12.80;68.40
83770;DHT22;73763;48.936;9.300;2024-03-23T15:28:28;12.90;63.60
83770;DHT22;73763;48.936;9.300;2024-03-23T15:30:57;13.30;62.50
83770;DHT22;73763;48.936;9.300;2024-03-23T15:33:23;13.50;60.50
83770;DHT22;73763;48.936;9.300;2024-03-23T15:35:49;13.90;57.50
83770;DHT22;73763;48.936;9.300;2024-03-23T15:38:14;14.20;56.80
83770;DHT22;73763;48.936;9.300;2024-03-23T15:40:40;14.50;55.10
83770;DHT22;73763;48.936;9.300;2024-03-23T15:43:05;14.70;55.20
83770;DHT22;73763;48.936;9.300;2024-03-23T15:45:31;14.60;54.10
83770;DHT22;73763;48.936;9.300;2024-03-23T15:47:56;14.70;54.20
83770;DHT22;73763;48.936;9.300;2024-03-23T15:50:22;14.30;53.60
83770;DHT22;73763;48.936;9.300;2024-03-23T15:52:47;14.50;55.50
83770;DHT22;73763;48.936;9.300;2024-03-23T15:55:13;14.50;55.40
83770;DHT22;73763;48.936;9.300;2024-03-23T15:57:40;14.00;57.70
83770;DHT22;73763;48.936;9.300;2024-03-23T16:00:06;13.80;58.20
83770;DHT22;73763;48.936;9.300;2024-03-23T16:02:31;13.80;59.70
83770;DHT22;73763;48.936;9.300;2024-03-23T16:04:57;13.80;60.60
83770;DHT22;73763;48.936;9.300;2024-03-23T16:07:22;12.40;63.40
83770;DHT22;73763;48.936;9.300;2024-03-23T16:09:48;11.30;70.40
83770;DHT22;73763;48.936;9.300;2024-03-23T16:12:13;11.30;72.30
83770;DHT22;73763;48.936;9.300;2024-03-23T16:14:39;11.80;69.80
83770;DHT22;73763;48.936;9.300;2024-03-23T16:17:05;11.80;68.20
83770;DHT22;73763;48.936;9.300;2024-03-23T16:19:31;12.00;69.30
83770;DHT22;73763;48.936;9.300;2024-03-23T16:21:56;12.00;68.70
83770;DHT22;73763;48.936;9.300;2024-03-23T16:24:22;12.10;69.30
83770;DHT22;73763;48.936;9.300;2024-03-23T16:26:47;12.40;67.90
83770;DHT22;73763;48.936;9.300;2024-03-23T16:29:13;12.20;70.40
83770;DHT22;73763;48.936;9.300;2024-03-23T16:31:39;11.30;72.90